ADDS METAR Data INFO
IDs: Format: Raw Decoded Include TAF

Data at: 1128 UTC 17 Jul 2018

KXIH 171115Z AUTO 24008KT 9SM BKN023 29/23 A3006 RMK A01
KXIH 171055Z AUTO 24009KT 9SM BKN023 BKN036 29/24 A3005 RMK A01
KXIH 171035Z AUTO 24010G15KT 9SM BKN022 BKN036 29/24 A3004 RMK A01
KXIH 171015Z AUTO 24010KT 9SM SCT022 29/24 A3004 RMK A01
KXIH 170955Z AUTO 25010KT 9SM SCT021 29/24 A3003 RMK A01
KXIH 170935Z AUTO 24011G17KT 9SM SCT021 29/24 A3003 RMK A01
KXIH 170915Z AUTO 24011G17KT 9SM FEW021 29/24 A3003 RMK A01
KXIH 170855Z AUTO 23015KT 9SM FEW020 29/24 A3003 RMK A01
KXIH 170835Z AUTO 23014KT 9SM CLR 29/24 A3002 RMK A01
KXIH 170815Z AUTO 23017KT 9SM CLR 29/24 A3002 RMK A01
KXIH 170755Z AUTO 23020KT 9SM CLR 30/24 A3002 RMK A01
KXIH 170735Z AUTO 23017KT 8SM CLR 29/24 A3002 RMK A01
KXIH 170715Z AUTO 22015KT 8SM CLR 29/24 A3003 RMK A01
KXIH 170655Z AUTO 22014KT 8SM CLR 29/24 A3004 RMK A01
KXIH 170635Z AUTO 23014KT 8SM CLR 29/24 A3004 RMK A01
KXIH 170615Z AUTO 22012KT 9SM CLR 29/24 A3004 RMK A01
KXIH 170555Z AUTO 22010KT 8SM CLR 29/24 A3004 RMK A01
KXIH 170535Z AUTO 22011KT 8SM CLR 29/24 A3004 RMK A01
KXIH 170515Z AUTO 22009KT 6SM HZ CLR 29/24 A3004 RMK A01
KXIH 170455Z AUTO 22012KT 6SM HZ CLR 29/24 A3004 RMK A01
KXIH 170435Z AUTO 22011KT 7SM CLR 29/24 A3003 RMK A01
KXIH 170415Z AUTO 22013KT 6SM HZ CLR 29/24 A3003 RMK A01
KXIH 170355Z AUTO 22013KT 7SM CLR 29/24 A3003 RMK A01
KXIH 170335Z AUTO 22014KT 6SM HZ CLR 29/25 A3003 RMK A01
KXIH 170315Z AUTO 22014KT 6SM HZ CLR 29/25 A3003 RMK A01
KXIH 170255Z AUTO 22012KT 6SM HZ CLR 29/25 A3003 RMK A01
KXIH 170235Z AUTO 22013KT 6SM HZ CLR 29/24 A3002 RMK A01
KXIH 170215Z AUTO 23013KT 6SM HZ CLR 29/25 A3002 RMK A01
KXIH 170155Z AUTO 22011KT 6SM HZ CLR 29/25 A3002 RMK A01
KXIH 170135Z AUTO 22011KT CLR 30/25 A3001 RMK A01
KXIH 170115Z AUTO 22013KT 7SM CLR 30/24 A3001 RMK A01
KXIH 170055Z AUTO 22015KT 6SM HZ CLR 30/24 A3000 RMK A01
KXIH 170035Z AUTO 23015KT 6SM HZ CLR 30/25 A3000 RMK A01
KXIH 170015Z AUTO 22014KT 6SM HZ CLR 30/24 A3000 RMK A01
KXIH 162355Z AUTO 23014KT 6SM HZ CLR 31/24 A3000 RMK A01
KXIH 162335Z AUTO 23013KT 6SM HZ CLR 31/24 A3001 RMK A01
KXIH 162315Z AUTO 23015KT 7SM CLR 31/24 A3001 RMK A01
KXIH 162255Z AUTO 22014KT 7SM CLR 31/24 A3002 RMK A01
KXIH 162235Z AUTO 22014KT 7SM CLR 31/24 A3002 RMK A01
KXIH 162215Z AUTO 22015KT 7SM CLR 32/24 A3002 RMK A01
KXIH 162155Z AUTO 22014KT 7SM CLR 32/24 A3003 RMK A01
KXIH 162135Z AUTO 22013KT 7SM CLR 32/24 A3003 RMK A01
KXIH 162115Z AUTO 22013KT 7SM CLR 32/23 A3003 RMK A01
KXIH 162055Z AUTO 22011KT 6SM HZ CLR 32/24 A3004 RMK A01
KXIH 162035Z AUTO 22011KT 6SM HZ CLR 32/24 A3005 RMK A01
KXIH 162015Z AUTO 22010KT 6SM HZ CLR 33/24 A3006 RMK A01
KXIH 161955Z AUTO 22008KT 7SM CLR 33/24 A3006 RMK A01
KXIH 161935Z AUTO 23009KT 7SM CLR 32/24 A3007 RMK A01
KXIH 161915Z AUTO 22010KT 6SM HZ CLR 32/24 A3008 RMK A01
KXIH 161855Z AUTO 24007KT 6SM HZ FEW024 32/24 A3008 RMK A01
KXIH 161835Z AUTO 23006KT 6SM HZ FEW024 31/24 A3008 RMK A01
KXIH 161815Z AUTO 23007KT 6SM HZ FEW025 31/24 A3008 RMK A01
KXIH 161755Z AUTO 24006KT 6SM HZ SCT024 31/24 A3009 RMK A01
KXIH 161735Z AUTO 23008KT 6SM HZ SCT023 31/24 A3009 RMK A01
KXIH 161715Z AUTO 24008KT 6SM HZ FEW024 30/24 A3009 RMK A01
KXIH 161655Z AUTO 23009KT 6SM HZ CLR 31/23 A3009 RMK A01
KXIH 161635Z AUTO 24006KT 6SM HZ FEW024 31/24 A3009 RMK A01
KXIH 161615Z AUTO 23007KT 6SM HZ FEW024 30/24 A3009 RMK A01
KXIH 161555Z AUTO 23006G12KT 6SM HZ FEW023 30/24 A3008 RMK A01
KXIH 161535Z AUTO 24007G12KT 6SM HZ CLR 30/24 A3007 RMK A01
KXIH 161515Z AUTO 24008KT 6SM HZ CLR 30/24 A3007 RMK A01
KXIH 161455Z AUTO 24009G14KT 6SM HZ CLR 30/23 A3007 RMK A01
KXIH 161435Z AUTO 23010KT 6SM HZ CLR 30/24 A3006 RMK A01
KXIH 161415Z AUTO 24010G15KT 6SM HZ FEW022 30/24 A3005 RMK A01
KXIH 161355Z AUTO 24011G18KT 6SM HZ CLR 30/24 A3004 RMK A01
KXIH 161335Z AUTO 24010G16KT 6SM HZ CLR 30/23 A3004 RMK A01
KXIH 161315Z AUTO 24010G16KT 6SM HZ FEW023 29/23 A3004 RMK A01
KXIH 161255Z AUTO 24010KT 6SM HZ SCT021 SCT026 SCT030 29/24 A3004 RMK A01
KXIH 161235Z AUTO 24011KT 6SM HZ FEW021 SCT027 29/24 A3004 RMK A01
KXIH 161215Z AUTO 23012KT 6SM HZ FEW024 29/24 A3003 RMK A01
KXIH 161155Z AUTO 23012KT 6SM HZ FEW024 29/24 A3003 RMK A01
KXIH 161135Z AUTO 23012KT 6SM HZ FEW023 FEW028 29/24 A3003 RMK A01
KXIH 161115Z AUTO 23012KT 7SM FEW024 29/24 A3003 RMK A01
KXIH 161055Z AUTO 23013KT 7SM FEW024 29/24 A3002 RMK A01
KXIH 161035Z AUTO 23014KT 7SM SCT025 29/24 A3002 RMK A01
KXIH 161015Z AUTO 23015KT 7SM FEW022 SCT027 29/23 A3002 RMK A01
KXIH 160955Z AUTO 23011KT 7SM BKN024 29/24 A3002 RMK A01
KXIH 160935Z AUTO 22014KT 7SM SCT022 29/24 A3002 RMK A01
KXIH 160915Z AUTO 23013KT 7SM SCT022 29/24 A3002 RMK A01
KXIH 160855Z AUTO 22012KT 7SM FEW022 29/24 A3002 RMK A01
KXIH 160835Z AUTO 22015KT 7SM FEW021 29/24 A3001 RMK A01
KXIH 160815Z AUTO 22013KT 8SM FEW022 29/24 A3002 RMK A01
KXIH 160755Z AUTO 22014KT 7SM FEW021 29/24 A3002 RMK A01
KXIH 160735Z AUTO 22015KT 8SM FEW021 29/24 A3002 RMK A01
KXIH 160715Z AUTO 22011KT 7SM CLR 29/24 A3003 RMK A01
KXIH 160655Z AUTO 22013KT 7SM CLR 29/24 A3003 RMK A01
KXIH 160635Z AUTO 22014KT 7SM CLR 29/24 A3003 RMK A01
KXIH 160615Z AUTO 22013KT 7SM CLR 29/24 A3003 RMK A01
KXIH 160555Z AUTO 22013KT 7SM CLR 29/24 A3003 RMK A01
KXIH 160535Z AUTO 22011KT 6SM HZ FEW021 29/25 A3004 RMK A01
KXIH 160515Z AUTO 22014KT 6SM HZ CLR 30/24 A3004 RMK A01
KXIH 160455Z AUTO 22014KT 6SM HZ CLR 30/24 A3004 RMK A01
KXIH 160435Z AUTO 22014KT 6SM HZ CLR 30/25 A3003 RMK A01
KXIH 160415Z AUTO 21012KT 6SM HZ CLR 30/24 A3004 RMK A01
KXIH 160355Z AUTO 20011KT 6SM HZ CLR 30/24 A3003 RMK A01
KXIH 160335Z AUTO 21012KT 6SM HZ CLR 30/24 A3003 RMK A01
KXIH 160315Z AUTO 21011KT 6SM HZ CLR 30/24 A3002 RMK A01
KXIH 160255Z AUTO 21012KT 6SM HZ CLR 30/25 A3002 RMK A01
KXIH 160235Z AUTO 20012KT 6SM HZ FEW021 FEW035 30/25 A3001 RMK A01
KXIH 160215Z AUTO 21011KT 6SM HZ CLR 30/25 A3000 RMK A01
KXIH 160155Z AUTO 22011KT 6SM HZ CLR 30/25 A3000 RMK A01
KXIH 160135Z AUTO 22012KT 6SM HZ CLR 30/25 A2999 RMK A01
KXIH 160115Z AUTO 22013KT 6SM HZ CLR 30/25 A2998 RMK A01
KXIH 160055Z AUTO 22013KT 6SM HZ FEW020 30/25 A2998 RMK A01
KXIH 160035Z AUTO 22014KT 6SM HZ CLR 30/25 A2998 RMK A01
KXIH 160015Z AUTO 22015KT 7SM FEW020 31/25 A2998 RMK A01
KXIH 152355Z AUTO 22013KT 6SM HZ FEW020 31/25 A2998 RMK A01
KXIH 152335Z AUTO 22014KT 6SM HZ FEW021 31/25 A2999 RMK A01